createdAt,value
2022-12-19T00:02:20.169Z,102481.94
2022-12-19T00:04:52.197Z,102503.84
2022-12-19T00:07:24.200Z,102473.63
2022-12-19T00:09:56.242Z,102438.88
2022-12-19T00:12:28.155Z,102533.44
2022-12-19T00:15:03.421Z,102578.91
2022-12-19T00:17:35.375Z,102582.47
2022-12-19T00:20:09.875Z,102549.94
2022-12-19T00:22:43.619Z,102572.34
2022-12-19T00:25:15.768Z,102564.88
2022-12-19T00:27:48.052Z,102546.94
2022-12-19T00:30:20.174Z,102477.81
2022-12-19T00:32:52.843Z,102511.88
2022-12-19T00:35:25.273Z,102553.94
2022-12-19T00:37:57.673Z,102565.03
2022-12-19T00:40:29.694Z,102555.63
2022-12-19T00:43:01.715Z,102533.06
2022-12-19T00:45:33.898Z,102558.06
2022-12-19T00:48:06.297Z,102545.28
2022-12-19T00:50:39.570Z,102545.06
2022-12-19T00:53:11.587Z,102543.34
2022-12-19T00:55:43.881Z,102456.09
2022-12-19T00:58:15.856Z,102485.59
2022-12-19T01:00:47.910Z,102501.56
2022-12-19T01:03:19.986Z,102537.84
2022-12-19T01:05:52.777Z,102566.00
2022-12-19T01:08:25.966Z,102549.59
2022-12-19T01:11:00.333Z,102568.19
2022-12-19T01:13:34.230Z,102569.16
2022-12-19T01:16:11.242Z,102569.97
2022-12-19T01:18:43.936Z,102555.63
2022-12-19T01:21:15.918Z,102571.75
2022-12-19T01:23:47.896Z,102563.78
2022-12-19T01:26:19.916Z,102552.69
2022-12-19T01:28:51.969Z,102573.25
2022-12-19T01:31:24.059Z,102522.53
2022-12-19T01:33:56.078Z,102529.47
2022-12-19T01:36:28.167Z,102524.56
2022-12-19T01:39:00.254Z,102545.28
2022-12-19T01:41:32.237Z,102545.06
2022-12-19T01:44:06.917Z,102568.09
2022-12-19T01:46:43.927Z,102563.84
2022-12-19T01:49:37.041Z,102553.63
2022-12-19T01:52:11.711Z,102565.63
2022-12-19T01:54:51.963Z,102532.25
2022-12-19T01:57:24.101Z,102552.81
2022-12-19T02:00:00.262Z,102544.31
2022-12-19T02:02:46.735Z,102522.47
2022-12-19T02:05:19.021Z,102527.94
2022-12-19T02:07:52.033Z,102529.00
2022-12-19T02:10:24.095Z,102488.91
2022-12-19T02:12:57.888Z,102495.78
2022-12-19T02:15:37.249Z,102526.66
2022-12-19T02:18:27.167Z,102538.09
2022-12-19T02:21:17.973Z,102541.53
2022-12-19T02:24:08.173Z,102538.56
2022-12-19T02:26:58.791Z,102528.44
2022-12-19T02:29:30.505Z,102524.78
2022-12-19T02:32:15.594Z,102516.44
2022-12-19T02:34:53.449Z,102517.16
2022-12-19T02:37:31.171Z,102521.81
2022-12-19T02:40:09.870Z,102490.13
2022-12-19T02:42:47.151Z,102525.22
2022-12-19T02:45:28.643Z,102484.50
2022-12-19T02:48:08.397Z,102507.56
2022-12-19T02:50:46.857Z,102510.03
2022-12-19T02:53:23.848Z,102490.03
2022-12-19T02:56:19.741Z,102496.97
2022-12-19T02:59:33.181Z,102492.56
2022-12-19T03:02:18.633Z,102486.97
2022-12-19T03:05:14.183Z,102472.19
2022-12-19T03:08:16.760Z,102485.88
2022-12-19T03:11:00.901Z,102496.63
2022-12-19T03:13:37.242Z,102499.00
2022-12-19T03:16:11.414Z,102497.84
2022-12-19T03:18:44.448Z,102485.66
2022-12-19T03:21:40.917Z,102484.56
2022-12-19T03:24:14.735Z,102482.69
2022-12-19T03:26:54.577Z,102492.75
2022-12-19T03:29:46.097Z,102464.88
2022-12-19T03:32:19.119Z,102433.81
2022-12-19T03:35:08.198Z,102468.13
2022-12-19T03:37:43.754Z,102422.41
2022-12-19T03:40:21.872Z,102467.22
2022-12-19T03:43:12.728Z,102485.19
2022-12-19T03:46:09.582Z,102479.03
2022-12-19T03:48:45.874Z,102482.34
2022-12-19T03:51:29.982Z,102477.78
2022-12-19T03:54:41.309Z,102479.34
2022-12-19T03:57:40.210Z,102470.69
2022-12-19T04:00:16.419Z,102417.66
2022-12-19T04:02:52.633Z,102481.69
2022-12-19T04:05:27.490Z,102479.59
2022-12-19T04:08:05.167Z,102438.94
2022-12-19T04:10:48.144Z,102443.91
2022-12-19T04:13:45.226Z,102462.34
2022-12-19T04:16:25.405Z,102469.69
2022-12-19T04:19:03.749Z,102427.00
2022-12-19T04:21:43.309Z,102441.59
2022-12-19T04:24:24.393Z,102450.66
2022-12-19T04:26:57.909Z,102425.09
2022-12-19T04:29:33.484Z,102349.53
2022-12-19T04:32:07.351Z,102370.72
2022-12-19T04:34:42.890Z,102434.91
2022-12-19T04:37:15.717Z,102412.28
2022-12-19T04:39:47.737Z,102365.97
2022-12-19T04:42:19.708Z,102381.13
2022-12-19T04:44:51.702Z,102413.06
2022-12-19T04:47:23.679Z,102415.66
2022-12-19T04:49:55.674Z,102340.41
2022-12-19T04:52:27.700Z,102348.75
2022-12-19T04:54:59.743Z,102342.72
2022-12-19T04:57:32.653Z,102406.03
2022-12-19T05:00:07.513Z,102368.00
2022-12-19T05:02:39.821Z,102354.34
2022-12-19T05:05:12.326Z,102370.84
2022-12-19T05:07:44.434Z,102308.75
2022-12-19T05:10:18.525Z,102297.44
2022-12-19T05:12:50.861Z,102349.25
2022-12-19T05:15:23.860Z,102379.06
2022-12-19T05:17:55.880Z,102362.53
2022-12-19T05:20:28.203Z,102347.69
2022-12-19T05:23:04.330Z,102327.94
2022-12-19T05:25:37.807Z,102292.28
2022-12-19T05:28:10.195Z,102369.38
2022-12-19T05:30:43.960Z,102363.50
2022-12-19T05:33:18.857Z,102392.47
2022-12-19T05:35:50.871Z,102357.19
2022-12-19T05:38:22.844Z,102384.03
2022-12-19T05:40:55.482Z,102361.31
2022-12-19T05:43:27.945Z,102348.28
2022-12-19T05:45:59.937Z,102265.47
2022-12-19T05:48:32.039Z,102364.50
2022-12-19T05:51:04.728Z,102330.25
2022-12-19T05:53:37.774Z,102350.84
2022-12-19T05:56:12.861Z,102344.75
2022-12-19T05:58:45.616Z,102368.19
2022-12-19T06:01:23.263Z,102378.84
2022-12-19T06:03:56.354Z,102329.00
2022-12-19T06:06:28.495Z,102359.63
2022-12-19T06:09:00.626Z,102364.22
2022-12-19T06:11:32.690Z,102347.50
2022-12-19T06:14:07.374Z,102339.66
2022-12-19T06:16:39.495Z,102352.06
2022-12-19T06:19:11.711Z,102241.00
2022-12-19T06:21:48.207Z,102360.81
2022-12-19T06:24:21.785Z,102315.47
2022-12-19T06:26:53.832Z,102306.66
2022-12-19T06:29:26.018Z,102331.97
2022-12-19T06:31:58.065Z,102335.38
2022-12-19T06:35:02.399Z,102330.56
2022-12-19T06:37:22.111Z,102321.69
2022-12-19T06:39:54.119Z,102343.81
2022-12-19T06:42:26.197Z,102349.03
2022-12-19T06:44:58.272Z,102349.63
2022-12-19T06:47:30.253Z,102375.91
2022-12-19T06:50:02.532Z,102369.41
2022-12-19T06:52:34.486Z,102365.50
2022-12-19T06:55:07.203Z,102357.91
2022-12-19T06:57:46.153Z,102373.34
2022-12-19T07:00:18.547Z,102367.53
2022-12-19T07:02:52.681Z,102363.50
2022-12-19T07:05:24.953Z,102343.53
2022-12-19T07:07:56.908Z,102304.44
2022-12-19T07:10:29.803Z,102363.84
2022-12-19T07:13:02.343Z,102373.25
2022-12-19T07:15:36.625Z,102374.75
2022-12-19T07:18:10.315Z,102350.66
2022-12-19T07:20:46.702Z,102343.03
2022-12-19T07:23:22.660Z,102367.59
2022-12-19T07:25:54.544Z,102345.16
2022-12-19T07:28:26.951Z,102247.88
2022-12-19T07:30:59.010Z,102267.16
2022-12-19T07:33:31.089Z,102302.78
2022-12-19T07:36:03.182Z,102271.34
2022-12-19T07:38:37.022Z,102242.94
2022-12-19T07:41:09.041Z,102250.94
2022-12-19T07:43:41.064Z,102349.31
2022-12-19T07:46:13.505Z,102269.38
2022-12-19T07:48:45.544Z,102273.69
2022-12-19T07:51:17.682Z,102309.84
2022-12-19T07:53:49.804Z,102378.09
2022-12-19T07:56:22.061Z,102296.69
2022-12-19T07:58:54.318Z,102368.44
2022-12-19T08:01:28.589Z,102353.19
2022-12-19T08:04:01.451Z,102301.84
2022-12-19T08:06:39.139Z,102375.78
2022-12-19T08:09:14.001Z,102369.59
2022-12-19T08:11:46.397Z,102353.19
2022-12-19T08:14:18.381Z,102357.47
2022-12-19T08:17:19.253Z,102352.56
2022-12-19T08:19:42.337Z,102355.41
2022-12-19T08:22:14.378Z,102278.47
2022-12-19T08:24:46.452Z,102320.38
2022-12-19T08:27:19.121Z,102309.56
2022-12-19T08:29:51.427Z,102338.22
2022-12-19T08:32:23.455Z,102320.38
2022-12-19T08:34:56.998Z,102286.47
2022-12-19T08:37:28.955Z,102297.28
2022-12-19T08:40:00.969Z,102289.84
2022-12-19T08:42:33.954Z,102282.00
2022-12-19T08:45:06.660Z,102287.00
2022-12-19T08:47:38.667Z,102299.41
2022-12-19T08:50:11.515Z,102258.34
2022-12-19T08:52:43.590Z,102301.09
2022-12-19T08:55:15.850Z,102257.63
2022-12-19T08:57:48.635Z,102250.34
2022-12-19T09:00:21.368Z,102285.47
2022-12-19T09:02:54.317Z,102272.38
2022-12-19T09:06:03.515Z,102272.22
2022-12-19T09:08:18.337Z,102263.25
2022-12-19T09:10:50.531Z,102254.94
2022-12-19T09:13:22.564Z,102232.91
2022-12-19T09:16:10.980Z,102265.38
2022-12-19T09:18:54.532Z,102234.28
2022-12-19T09:21:30.273Z,102241.06
2022-12-19T09:24:07.716Z,102244.25
2022-12-19T09:26:42.609Z,102239.31
2022-12-19T09:29:20.931Z,102252.28
2022-12-19T09:31:56.401Z,102244.91
2022-12-19T09:34:38.145Z,102235.25
2022-12-19T09:37:16.927Z,102208.78
2022-12-19T09:39:51.695Z,102244.06
2022-12-19T09:42:56.938Z,102236.53
2022-12-19T09:45:41.776Z,102206.38
2022-12-19T09:48:24.088Z,102228.34
2022-12-19T09:51:29.112Z,102229.19
2022-12-19T09:54:11.908Z,102191.19
2022-12-19T09:56:46.891Z,102174.66
2022-12-19T09:59:39.760Z,102201.25
2022-12-19T10:02:21.028Z,102188.75
2022-12-19T10:05:06.587Z,102195.38
2022-12-19T10:08:08.509Z,102169.53
2022-12-19T10:12:40.779Z,102168.06
2022-12-19T10:14:33.375Z,102157.84
2022-12-19T10:17:29.644Z,102161.44
2022-12-19T10:20:01.612Z,102145.38
2022-12-19T10:22:56.137Z,102032.34
2022-12-19T10:25:31.892Z,102133.63
2022-12-19T10:28:45.562Z,102112.91
2022-12-19T10:31:22.946Z,102110.84
2022-12-19T10:34:16.571Z,102106.31
2022-12-19T10:39:57.998Z,102104.16
2022-12-19T10:42:44.384Z,102080.44
2022-12-19T10:45:19.926Z,102094.53
2022-12-19T10:47:58.270Z,102068.44
2022-12-19T10:50:31.111Z,102095.63
2022-12-19T10:53:08.711Z,102091.88
2022-12-19T10:55:45.944Z,102100.44
2022-12-19T10:58:38.135Z,102098.00
2022-12-19T11:01:24.896Z,102021.13
2022-12-19T11:04:17.810Z,102089.78
2022-12-19T11:07:05.693Z,102086.59
2022-12-19T11:09:41.948Z,102077.28
2022-12-19T11:16:09.503Z,102069.19
2022-12-19T11:19:45.314Z,102053.38
2022-12-19T11:24:53.850Z,102061.13
2022-12-19T11:29:19.663Z,102029.75
2022-12-19T11:29:33.109Z,101970.03
2022-12-19T11:30:48.179Z,102034.00
2022-12-19T11:33:27.637Z,102015.66
2022-12-19T11:36:02.089Z,102047.69
2022-12-19T11:38:42.837Z,102050.34
2022-12-19T11:41:29.609Z,102038.59
2022-12-19T11:44:34.815Z,102044.91
2022-12-19T11:47:32.878Z,102037.66
2022-12-19T11:50:15.842Z,102025.97
2022-12-19T11:53:14.668Z,102016.50
2022-12-19T11:55:56.274Z,102019.72
2022-12-19T11:58:30.269Z,101927.69
2022-12-19T12:01:23.986Z,102016.91
2022-12-19T12:04:05.462Z,102009.38
2022-12-19T12:06:50.923Z,101994.41
2022-12-19T12:12:39.365Z,101998.59
2022-12-19T12:21:39.530Z,101961.03
2022-12-19T12:28:20.920Z,101978.22
2022-12-19T12:31:05.842Z,101963.28
2022-12-19T12:31:06.473Z,101960.66
2022-12-19T12:31:54.114Z,101962.19
2022-12-19T12:32:06.314Z,101965.38
2022-12-19T12:35:19.235Z,101978.91
2022-12-19T12:38:36.071Z,101956.97
2022-12-19T12:41:44.494Z,101941.47
2022-12-19T12:44:16.604Z,101937.44
2022-12-19T12:47:00.110Z,101933.34
2022-12-19T12:49:46.618Z,101911.34
2022-12-19T12:52:42.317Z,101915.31
2022-12-19T12:55:40.642Z,101903.25
2022-12-19T12:58:50.941Z,101921.25
2022-12-19T13:01:29.250Z,101922.97
2022-12-19T13:04:21.948Z,101925.44
2022-12-19T13:06:53.970Z,101924.53
2022-12-19T13:09:32.356Z,101923.59
2022-12-19T13:12:42.892Z,101917.72
2022-12-19T13:15:31.804Z,101926.75
2022-12-19T13:18:16.020Z,101841.06
2022-12-19T13:20:49.011Z,101888.22
2022-12-19T13:23:30.106Z,101926.63
2022-12-19T13:26:02.387Z,101812.72
2022-12-19T13:28:34.345Z,101932.47
2022-12-19T13:31:19.065Z,101923.06
2022-12-19T13:33:55.949Z,101910.31
2022-12-19T13:39:52.340Z,101889.94
2022-12-19T13:40:08.739Z,101877.19
2022-12-19T13:43:30.624Z,101886.38
2022-12-19T13:46:06.149Z,101875.16
2022-12-19T13:48:46.821Z,101858.84
2022-12-19T13:51:18.822Z,101876.59
2022-12-19T13:53:59.287Z,101857.63
2022-12-19T13:56:32.255Z,101863.03
2022-12-19T13:59:05.771Z,101772.34
2022-12-19T14:01:41.101Z,101822.03
2022-12-19T14:04:26.858Z,101796.25
2022-12-19T14:07:05.770Z,101816.78
2022-12-19T14:11:26.468Z,101748.94
2022-12-19T14:13:46.190Z,101765.13
2022-12-19T14:15:52.454Z,101803.47
2022-12-19T14:18:42.253Z,101832.69
2022-12-19T14:22:08.687Z,101814.03
2022-12-19T14:24:17.860Z,101815.78
2022-12-19T14:28:24.151Z,101771.16
2022-12-19T14:30:30.636Z,101780.34
2022-12-19T14:33:44.637Z,101795.66
2022-12-19T14:36:07.423Z,101803.41
2022-12-19T14:39:24.040Z,101808.59
2022-12-19T14:42:04.284Z,101806.06
2022-12-19T14:53:17.916Z,101774.28
2022-12-19T14:53:27.802Z,101810.25
2022-12-19T14:54:29.347Z,101787.31
2022-12-19T14:54:37.409Z,101799.25
2022-12-19T14:59:35.760Z,101790.63
2022-12-19T15:02:07.864Z,101783.06
2022-12-19T15:04:54.671Z,101745.69
2022-12-19T15:07:33.501Z,101705.56
2022-12-19T15:11:09.162Z,101764.31
2022-12-19T15:14:54.259Z,101756.06
2022-12-19T15:16:29.234Z,101757.63
2022-12-19T15:19:02.801Z,101762.03
2022-12-19T15:21:34.701Z,101709.81
2022-12-19T15:24:06.693Z,101734.66
2022-12-19T15:26:50.524Z,101700.69
2022-12-19T15:29:22.652Z,101722.09
2022-12-19T15:31:55.746Z,101751.91
2022-12-19T15:34:36.333Z,101718.72
2022-12-19T15:37:17.105Z,101731.59
2022-12-19T15:39:49.091Z,101720.47
2022-12-19T15:42:25.240Z,101705.44
2022-12-19T15:45:00.219Z,101704.66
2022-12-19T15:47:37.493Z,101719.88
2022-12-19T15:50:29.669Z,101719.25
2022-12-19T15:53:26.903Z,101678.31
2022-12-19T15:56:25.019Z,101701.63
2022-12-19T15:58:59.559Z,101694.94
2022-12-19T16:01:36.505Z,101695.72
2022-12-19T16:04:18.003Z,101695.09
2022-12-19T16:06:54.076Z,101694.34
2022-12-19T16:09:28.149Z,101691.09
2022-12-19T16:12:00.721Z,101628.78
2022-12-19T16:14:32.969Z,101672.44
2022-12-19T16:17:12.351Z,101690.28
2022-12-19T16:19:46.614Z,101696.53
2022-12-19T16:22:28.929Z,101698.19
2022-12-19T16:25:00.969Z,101610.81
2022-12-19T16:27:37.344Z,101647.44
2022-12-19T16:30:20.074Z,101655.44
2022-12-19T16:32:56.101Z,101651.31
2022-12-19T16:36:03.118Z,101655.69
2022-12-19T16:38:24.146Z,101631.75
2022-12-19T16:41:00.579Z,101629.38
2022-12-19T16:43:41.091Z,101637.91
2022-12-19T16:46:16.742Z,101644.66
2022-12-19T16:48:50.178Z,101647.13
2022-12-19T16:51:24.844Z,101599.34
2022-12-19T16:54:00.761Z,101625.94
2022-12-19T16:56:45.363Z,101613.31
2022-12-19T16:59:25.295Z,101601.53
2022-12-19T17:01:59.386Z,101592.09
2022-12-19T17:04:31.522Z,101569.16
2022-12-19T17:07:10.957Z,101578.66
2022-12-19T17:09:43.328Z,101577.59
2022-12-19T17:12:18.645Z,101568.28
2022-12-19T17:14:50.806Z,101545.41
2022-12-19T17:17:22.930Z,101568.53
2022-12-19T17:19:54.961Z,101561.03
2022-12-19T17:22:27.004Z,101453.56
2022-12-19T17:24:59.037Z,101496.16
2022-12-19T17:27:31.613Z,101420.53
2022-12-19T17:30:03.825Z,101488.53
2022-12-19T17:32:36.414Z,101475.88
2022-12-19T17:35:16.246Z,101546.75
2022-12-19T17:37:55.044Z,101487.19
2022-12-19T17:40:29.838Z,101556.13
2022-12-19T17:43:02.021Z,101517.22
2022-12-19T17:45:34.948Z,101522.41
2022-12-19T17:48:16.235Z,101461.94
2022-12-19T17:50:48.453Z,101523.41
2022-12-19T17:53:20.736Z,101453.63
2022-12-19T17:55:53.409Z,101538.13
2022-12-19T17:58:25.666Z,101477.44
2022-12-19T18:00:57.732Z,101506.47
2022-12-19T18:03:30.440Z,101524.41
2022-12-19T18:06:05.986Z,101529.63
2022-12-19T18:08:40.697Z,101537.50
2022-12-19T18:11:24.620Z,101531.75
2022-12-19T18:13:56.599Z,101511.19
2022-12-19T18:16:31.170Z,101537.59
2022-12-19T18:19:05.136Z,101539.38
2022-12-19T18:21:37.169Z,101521.50
2022-12-19T18:24:12.375Z,101535.31
2022-12-19T18:26:45.411Z,101527.69
2022-12-19T18:29:17.468Z,101503.13
2022-12-19T18:31:51.090Z,101527.91
2022-12-19T18:34:25.774Z,101517.81
2022-12-19T18:36:57.823Z,101500.75
2022-12-19T18:39:31.097Z,101457.41
2022-12-19T18:42:08.613Z,101441.41
2022-12-19T18:44:40.574Z,101496.91
2022-12-19T18:47:23.734Z,101490.22
2022-12-19T18:49:55.809Z,101467.41
2022-12-19T18:52:27.751Z,101467.38
2022-12-19T18:54:59.825Z,101456.38
2022-12-19T18:57:31.813Z,101482.00
2022-12-19T19:00:04.321Z,101429.34
2022-12-19T19:02:36.643Z,101464.19
2022-12-19T19:05:14.883Z,101470.25
2022-12-19T19:07:47.828Z,101457.47
2022-12-19T19:10:28.857Z,101464.38
2022-12-19T19:13:05.178Z,101466.84
2022-12-19T19:15:48.133Z,101472.84
2022-12-19T19:18:23.074Z,101461.03
2022-12-19T19:21:00.787Z,101441.66
2022-12-19T19:23:38.614Z,101440.88
2022-12-19T19:26:10.649Z,101355.94
2022-12-19T19:28:45.951Z,101390.97
2022-12-19T19:31:26.916Z,101389.28
2022-12-19T19:34:22.264Z,101425.94
2022-12-19T19:36:56.634Z,101400.47
2022-12-19T19:39:32.050Z,101407.34
2022-12-19T19:42:04.263Z,101407.44
2022-12-19T19:44:37.352Z,101393.84
2022-12-19T19:47:09.394Z,101400.72
2022-12-19T19:49:41.656Z,101375.28
2022-12-19T19:52:13.592Z,101379.56
2022-12-19T19:54:46.119Z,101365.97
2022-12-19T19:57:18.124Z,101352.41
2022-12-19T19:59:50.124Z,101360.94
2022-12-19T20:02:22.730Z,101350.06
2022-12-19T20:04:54.853Z,101350.94
2022-12-19T20:07:27.221Z,101289.78
2022-12-19T20:09:59.367Z,101309.19
2022-12-19T20:12:31.688Z,101349.38
2022-12-19T20:15:04.786Z,101360.34
2022-12-19T20:17:37.083Z,101341.72
2022-12-19T20:20:09.545Z,101358.72
2022-12-19T20:22:42.877Z,101362.19
2022-12-19T20:25:15.046Z,101339.19
2022-12-19T20:27:47.060Z,101341.94
2022-12-19T20:30:19.224Z,101358.88
2022-12-19T20:32:51.236Z,101344.50
2022-12-19T20:35:24.180Z,101290.09
2022-12-19T20:37:56.336Z,101347.13
2022-12-19T20:40:28.543Z,101356.47
2022-12-19T20:43:00.520Z,101377.75
2022-12-19T20:45:32.764Z,101305.63
2022-12-19T20:48:04.874Z,101342.13
2022-12-19T20:50:42.893Z,101345.59
2022-12-19T20:53:15.524Z,101353.31
2022-12-19T20:55:58.136Z,101320.19
2022-12-19T20:58:33.388Z,101349.91
2022-12-19T21:01:08.945Z,101345.72
2022-12-19T21:03:41.738Z,101348.22
2022-12-19T21:06:15.502Z,101338.13
2022-12-19T21:08:49.053Z,101331.38
2022-12-19T21:11:21.715Z,101264.28
2022-12-19T21:13:53.972Z,101323.78
2022-12-19T21:16:26.154Z,101283.06
2022-12-19T21:18:58.429Z,101262.66
2022-12-19T21:21:30.676Z,101296.66
2022-12-19T21:24:03.606Z,101291.66
2022-12-19T21:26:35.769Z,101310.31
2022-12-19T21:29:07.880Z,101312.84
2022-12-19T21:31:43.214Z,101240.81
2022-12-19T21:34:15.341Z,101285.81
2022-12-19T21:36:47.487Z,101206.00
2022-12-19T21:39:21.005Z,101197.59
2022-12-19T21:41:53.214Z,101226.47
2022-12-19T21:44:25.233Z,101231.50
2022-12-19T21:46:57.295Z,101258.75
2022-12-19T21:49:29.410Z,101202.78
2022-12-19T21:52:01.496Z,101276.59
2022-12-19T21:54:33.494Z,101256.19
2022-12-19T21:57:05.615Z,101266.44
2022-12-19T21:59:37.655Z,101264.78
2022-12-19T22:02:11.154Z,101268.19
2022-12-19T22:04:43.133Z,101207.97
2022-12-19T22:07:15.736Z,101241.09
2022-12-19T22:09:47.703Z,101213.94
2022-12-19T22:12:19.882Z,101242.84
2022-12-19T22:14:52.060Z,101152.97
2022-12-19T22:17:24.045Z,101209.78
2022-12-19T22:19:56.126Z,101163.19
2022-12-19T22:22:28.105Z,101206.44
2022-12-19T22:25:00.142Z,101199.69
2022-12-19T22:27:32.159Z,101193.75
2022-12-19T22:30:10.689Z,101215.81
2022-12-19T22:32:43.261Z,101202.25
2022-12-19T22:35:15.408Z,101187.03
2022-12-19T22:37:50.677Z,101170.06
2022-12-19T22:40:22.839Z,101180.28
2022-12-19T22:42:55.045Z,101139.59
2022-12-19T22:45:30.800Z,101169.25
2022-12-19T22:48:02.961Z,101070.13
2022-12-19T22:50:35.108Z,101066.81
2022-12-19T22:53:12.600Z,101150.63
2022-12-19T22:55:44.975Z,101139.59
2022-12-19T22:58:16.982Z,101124.41
2022-12-19T23:00:49.936Z,101165.88
2022-12-19T23:03:22.163Z,101108.28
2022-12-19T23:05:55.049Z,101125.25
2022-12-19T23:08:27.017Z,101143.88
2022-12-19T23:10:59.024Z,101139.59
2022-12-19T23:13:30.993Z,101119.28
2022-12-19T23:16:03.121Z,101120.97
2022-12-19T23:18:35.574Z,101051.56
2022-12-19T23:21:19.289Z,101116.75
2022-12-19T23:23:54.080Z,101129.41
2022-12-19T23:26:29.235Z,101065.94
2022-12-19T23:29:09.750Z,101117.53
2022-12-19T23:31:44.476Z,101055.78
2022-12-19T23:34:17.008Z,101115.81
2022-12-19T23:39:42.328Z,101087.06
2022-12-19T23:42:14.295Z,101112.41
2022-12-19T23:44:46.264Z,101098.00
2022-12-19T23:47:18.217Z,101107.31
2022-12-19T23:49:50.179Z,101099.66
2022-12-19T23:52:22.178Z,101071.75
2022-12-19T23:54:54.211Z,101091.19
2022-12-19T23:57:26.186Z,101062.38
2022-12-19T23:59:58.093Z,101039.56
